Flight Track Log - Related Links

Times and Time Zones

All times are in EDT time to prevent confusion due to time zone crossing. See the SKW4728 flight status page for this flight to view local times or setup timezone preferences in your user account.

Time Position Orientation Groundspeed Altitude Reporting Facility
EDT Latitude Longitude Course Direction KTS MPH feet Rate Location/Type
Thu 04:20:32 PM 42.4611 -122.8397 111° Southeast 202 232 5,100  Level Seattle Center
Thu 04:21:33 PM 42.4856 -122.7719 64° Northeast 233 268 7,800 2,213 Climbing Seattle Center
Thu 04:22:00 PM 42.3757 -122.5816 111° Southeast  Level FlightAware Approximate
Thu 04:22:34 PM 42.4378 -122.6994 132° Southeast 264 304 9,600  Level Seattle Center
Thu 04:23:00 PM 42.3368 -122.4304 109° East  Level FlightAware Approximate
Thu 04:23:35 PM 42.4008 -122.6022 117° Southeast 297 342 11,800  Level Seattle Center
Thu 04:24:00 PM 42.3013 -122.2779 111° Southeast  Level FlightAware Approximate
Thu 04:24:36 PM 42.3456 -122.5161 131° Southeast 304 350 14,100  Level Seattle Center
Thu 04:25:00 PM 42.2595 -122.1283 111° Southeast  Level FlightAware Approximate
Thu 04:25:37 PM 42.2861 -122.4283 132° Southeast 316 364 16,000  Level Seattle Center
Thu 04:26:38 PM 42.2200 -122.3419 136° Southeast 330 380 17,700 1,525 Climbing Seattle Center
Thu 04:27:39 PM 42.1508 -122.2531 136° Southeast 343 395 19,100 1,525 Climbing Seattle Center
Thu 04:28:40 PM 42.0678 -122.1447 136° Southeast 347 399 20,800 1,574 Climbing Seattle Center
Thu 04:29:41 PM 41.9964 -122.0550 137° Southeast 359 413 22,300 1,328 Climbing Seattle Center
Thu 04:30:42 PM 41.9231 -121.9639 137° Southeast 367 422 23,500 1,131 Climbing Seattle Center
Thu 04:31:43 PM 41.8472 -121.8694 137° Southeast 373 429 24,600 1,082 Climbing Seattle Center
Thu 04:32:44 PM 41.7689 -121.7725 137° Southeast 380 437 25,700 984 Climbing Seattle Center
Thu 04:33:45 PM 41.6889 -121.6739 137° Southeast 388 447 26,600 934 Climbing Seattle Center
Thu 04:34:46 PM 41.6078 -121.5733 137° Southeast 395 455 27,600 934 Climbing Seattle Center
Thu 04:35:47 PM 41.5253 -121.4722 137° Southeast 401 461 28,500 836 Climbing Seattle Center
Thu 04:36:48 PM 41.4406 -121.3689 138° Southeast 409 471 29,300 885 Climbing Seattle Center
Thu 04:37:49 PM 41.4158 -121.1967 101° East 408 470 30,300 885 Climbing Seattle Center
Thu 04:38:50 PM 41.4075 -121.0489 94° East 402 463 31,100 639 Climbing Seattle Center
Thu 04:39:51 PM 41.3992 -120.8972 94° East 409 471 31,600 333 Climbing Seattle Center
Thu 04:41:00 PM 41.3941 -120.7280 92° East  Level Estimated
Thu 04:44:32 PM 41.3531 -120.1967 93° East 435 501 33,000  Level Salt Lake Center
Thu 04:44:55 PM 41.3489 -120.1225 94° East 442 509 33,000  Level Seattle Center
Thu 04:45:56 PM 41.3369 -119.9586 97° East 446 513 33,000  Level Seattle Center
Thu 04:46:00 PM 41.3128 -119.9706 107° East  Level FlightAware Approximate
Thu 04:46:57 PM 41.3244 -119.7950 96° East 447 514 33,000  Level Seattle Center
Thu 04:47:58 PM 41.3131 -119.6289 95° East 450 518 33,000  Level Seattle Center
Thu 04:48:00 PM 41.3577 -119.6988 92° East  Level Estimated
Thu 04:48:59 PM 41.3014 -119.4611 95° East 455 524 33,000  Level Seattle Center
Thu 04:49:00 PM 41.3517 -119.5519 93° East  Level Estimated
Thu 04:49:40 PM 41.2903 -119.3422 97° East 454 522 33,000  Level Salt Lake Center
Thu 04:50:41 PM 41.2761 -119.1553 96° East 456 525 33,000  Level Salt Lake Center
Thu 04:51:43 PM 41.2639 -118.9969 96° East 453 521 33,000  Level Salt Lake Center
Thu 04:52:44 PM 41.2492 -118.8100 96° East 454 522 33,000  Level Salt Lake Center
Thu 04:53:00 PM 41.2767 -118.9426 94° East  Level Estimated
Thu 04:53:46 PM 41.2367 -118.6533 96° East 449 517 33,000  Level Salt Lake Center
Thu 04:54:00 PM 41.2636 -118.7967 97° East  Level FlightAware Approximate
Thu 04:54:47 PM 41.2236 -118.4975 96° East 445 512 33,000  Level Salt Lake Center
Thu 04:55:49 PM 41.2083 -118.3147 96° East 445 512 33,000  Level Salt Lake Center
Thu 04:56:50 PM 41.1936 -118.1594 97° East 444 511 33,000  Level Salt Lake Center
Thu 04:57:52 PM 41.1789 -117.9772 96° East 444 511 33,000  Level Salt Lake Center
Thu 04:58:54 PM 41.1647 -117.8225 97° East 442 509 33,000  Level Salt Lake Center
Thu 04:59:55 PM 41.1503 -117.6658 97° East 443 510 33,000  Level Salt Lake Center
Thu 05:00:57 PM 41.1336 -117.4844 97° East 443 510 33,000  Level Salt Lake Center
Thu 05:01:58 PM 41.1192 -117.3289 97° East 443 510 33,000  Level Salt Lake Center
Thu 05:03:00 PM 41.1022 -117.1475 97° East 443 510 33,000  Level Salt Lake Center
Thu 05:04:01 PM 41.0878 -116.9919 97° East 443 510 33,000  Level Salt Lake Center
Thu 05:05:03 PM 41.0719 -116.8356 98° East 444 511 33,000  Level Salt Lake Center
Thu 05:06:05 PM 41.0544 -116.6539 97° East 443 510 33,000  Level Salt Lake Center
Thu 05:07:06 PM 41.0392 -116.4983 97° East 443 510 33,000  Level Salt Lake Center
Thu 05:08:08 PM 41.0206 -116.3167 98° East 444 511 33,000  Level Salt Lake Center
Thu 05:09:10 PM 41.0039 -116.1600 98° East 446 513 33,000  Level Salt Lake Center
Thu 05:10:11 PM 40.9867 -116.0042 98° East 446 513 33,000  Level Salt Lake Center
Thu 05:11:12 PM 40.9672 -115.8225 98° East 445 512 33,000  Level Salt Lake Center
Thu 05:12:14 PM 40.9508 -115.6669 98° East 445 512 33,000  Level Salt Lake Center
Thu 05:13:16 PM 40.9147 -115.5186 108° East 446 513 33,000  Level Salt Lake Center
Thu 05:14:17 PM 40.8208 -115.3800 132° Southeast 450 518 33,000  Level Salt Lake Center
Thu 05:15:19 PM 40.7386 -115.2653 133° Southeast 449 517 33,000  Level Salt Lake Center
Thu 05:16:20 PM 40.6692 -115.1083 120° Southeast 444 511 33,000  Level Salt Lake Center
Thu 05:17:22 PM 40.6661 -114.9525 91° East 446 513 33,000  Level Salt Lake Center
Thu 05:18:24 PM 40.6781 -114.7803 85° East 444 511 33,000  Level Salt Lake Center
Thu 05:19:25 PM 40.6869 -114.6183 86° East 444 511 33,000  Level Salt Lake Center
Thu 05:20:27 PM 40.6956 -114.4567 86° East 444 511 33,000  Level Salt Lake Center
Thu 05:21:29 PM 40.7028 -114.2939 87° East 446 513 33,000 -1,073 Level Salt Lake Center
Thu 05:22:30 PM 40.7097 -114.1283 87° East 454 522 30,800 -2,341 Descending Salt Lake Center
Thu 05:23:32 PM 40.7183 -113.9342 87° East 444 511 28,200 -2,226 Descending Salt Lake Center
Thu 05:24:34 PM 40.7244 -113.7831 87° East 419 482 26,200 -1,935 Descending Salt Lake Center
Thu 05:25:36 PM 40.7267 -113.6342 89° East 409 471 24,200 -1,935 Descending Salt Lake Center
Thu 05:26:38 PM 40.7261 -113.4897 90° East 398 458 22,200 -1,902 Descending Salt Lake Center
Thu 05:27:39 PM 40.7253 -113.3472 90° East 395 455 20,300 -1,659 Descending Salt Lake Center
Thu 05:28:41 PM 40.7247 -113.2119 90° East 376 433 18,800 -1,065 Descending Salt Lake Center
Thu 05:29:43 PM 40.7247 -113.0803 90° East 363 418 18,100 -1,041 Descending Salt Lake Center
Thu 05:30:19 PM 40.7283 -112.9836 87° East 359 413 17,100 -1,111 Descending Salt Lake Center
Thu 05:30:37 PM 40.7294 -112.9439 88° East 356 410 17,100 -152 Level Salt Lake Center
Thu 05:31:38 PM 40.7261 -112.8122 92° East 355 409 16,900 -590 Descending Salt Lake Center
Thu 05:32:39 PM 40.7242 -112.6661 91° East 402 463 15,900 -1,180 Descending Salt Lake Center
Thu 05:33:40 PM 40.7261 -112.5186 89° East 401 461 14,500 -1,426 Descending Salt Lake Center
Thu 05:34:41 PM 40.7472 -112.3814 78° East 383 441 13,000 -1,230 Descending Salt Lake Center
Thu 05:35:42 PM 40.7653 -112.2425 80° East 350 403 12,000 -496 Descending Salt Lake Center
Thu 05:36:42 PM 40.7575 -112.1461 96° East 259 298 12,000 -397 Level Salt Lake Center
Thu 05:37:43 PM 40.7036 -112.0908 142° Southeast 249 287 11,200 -868 Descending Salt Lake Center
Thu 05:37:58 PM 40.6903 -112.0847 161° South 250 288 10,900 -1,475 Descending Salt Lake Center
Thu 05:38:44 PM 40.6353 -112.0828 178° South 246 283 9,700 -1,355 Descending Salt Lake Center
Thu 05:39:00 PM 40.6211 -112.0767 162° South 248 285 9,500 -590 Descending Salt Lake Center
Thu 05:39:45 PM 40.5694 -112.0653 170° South 232 267 9,100 -484 Descending Salt Lake Center
Thu 05:40:02 PM 40.5658 -112.0503 108° East 231 266 9,000 -885 Descending Salt Lake Center
Thu 05:40:46 PM 40.5775 -111.9864 76° East 231 266 8,200 -968 Descending Salt Lake Center
Thu 05:41:04 PM 40.5861 -111.9778 37° Northeast 231 266 8,000 -984 Descending Salt Lake Center
Thu 05:41:47 PM 40.6372 -111.9831 356° North 219 252 7,200 -1,161 Descending Salt Lake Center
Thu 05:42:06 PM 40.6578 -111.9825 North 211 243 6,800 -1,263 Descending Salt Lake Center

Login

Don't have an account? Register now (free) for customized features, flight alerts, and more!